createdAt,value
2022-08-28T00:03:36.267Z,15.72
2022-08-28T00:08:40.061Z,15.81
2022-08-28T00:13:41.951Z,15.86
2022-08-28T00:18:43.566Z,15.92
2022-08-28T00:23:50.754Z,15.91
2022-08-28T00:28:52.295Z,15.86
2022-08-28T00:33:53.859Z,15.79
2022-08-28T00:39:00.053Z,15.75
2022-08-28T00:44:21.894Z,15.75
2022-08-28T00:49:29.437Z,15.76
2022-08-28T00:54:35.583Z,15.76
2022-08-28T00:59:38.307Z,15.73
2022-08-28T01:04:40.023Z,15.69
2022-08-28T01:09:44.764Z,15.69
2022-08-28T01:14:49.715Z,15.71
2022-08-28T01:19:58.320Z,15.77
2022-08-28T01:25:03.357Z,15.86
2022-08-28T01:30:05.395Z,15.94
2022-08-28T01:35:14.600Z,15.99
2022-08-28T01:40:22.986Z,16.04
2022-08-28T01:45:25.775Z,16.10
2022-08-28T01:50:27.364Z,16.12
2022-08-28T01:55:29.311Z,16.12
2022-08-28T02:00:31.105Z,16.06
2022-08-28T02:05:33.793Z,16.07
2022-08-28T02:10:37.616Z,16.13
2022-08-28T02:15:40.748Z,16.12
2022-08-28T02:20:42.957Z,16.06
2022-08-28T02:25:44.627Z,16.01
2022-08-28T02:30:46.266Z,15.98
2022-08-28T02:35:48.099Z,15.94
2022-08-28T02:40:49.679Z,15.80
2022-08-28T02:45:51.238Z,15.71
2022-08-28T02:50:58.288Z,15.61
2022-08-28T02:56:01.076Z,15.52
2022-08-28T03:01:07.013Z,15.50
2022-08-28T03:06:09.588Z,15.49
2022-08-28T03:11:12.069Z,15.56
2022-08-28T03:16:13.763Z,15.60
2022-08-28T03:21:15.315Z,15.62
2022-08-28T03:26:20.260Z,15.65
2022-08-28T03:31:25.172Z,15.67
2022-08-28T03:36:28.778Z,15.72
2022-08-28T03:41:31.859Z,15.75
2022-08-28T03:46:34.485Z,15.78
2022-08-28T03:51:36.134Z,15.83
2022-08-28T03:56:41.019Z,15.89
2022-08-28T04:01:42.599Z,16.00
2022-08-28T04:06:44.211Z,16.06
2022-08-28T04:11:45.755Z,16.11
2022-08-28T04:16:49.198Z,16.15
2022-08-28T04:21:50.849Z,16.23
2022-08-28T04:26:54.073Z,16.35
2022-08-28T04:31:58.207Z,16.43
2022-08-28T04:36:59.846Z,16.55
2022-08-28T04:42:01.450Z,16.59
2022-08-28T04:47:03.017Z,16.62
2022-08-28T04:52:07.984Z,16.61
2022-08-28T04:57:09.521Z,16.63
2022-08-28T05:02:11.284Z,16.65
2022-08-28T05:07:12.991Z,16.68
2022-08-28T05:12:17.275Z,16.75
2022-08-28T05:17:18.840Z,16.81
2022-08-28T05:22:20.403Z,16.87
2022-08-28T05:27:23.802Z,16.90
2022-08-28T05:32:25.338Z,16.95
2022-08-28T05:37:27.726Z,17.01
2022-08-28T05:42:30.999Z,17.10
2022-08-28T05:47:33.451Z,17.23
2022-08-28T05:52:35.698Z,17.36
2022-08-28T05:57:37.662Z,17.45
2022-08-28T06:02:40.801Z,17.56
2022-08-28T06:07:43.091Z,17.67
2022-08-28T06:12:44.613Z,17.77
2022-08-28T06:17:46.393Z,17.91
2022-08-28T06:22:50.437Z,18.03
2022-08-28T06:27:51.999Z,18.15
2022-08-28T06:32:54.717Z,18.19
2022-08-28T06:37:56.336Z,18.29
2022-08-28T06:42:57.871Z,18.34
2022-08-28T06:47:59.492Z,18.43
2022-08-28T06:53:01.330Z,18.58
2022-08-28T06:58:03.927Z,18.69
2022-08-28T07:03:06.285Z,18.72
2022-08-28T07:08:07.957Z,18.85
2022-08-28T07:13:09.529Z,18.93
2022-08-28T07:18:11.250Z,19.05
2022-08-28T07:23:13.004Z,19.21
2022-08-28T07:28:14.899Z,19.29
2022-08-28T07:33:16.536Z,19.28
2022-08-28T07:38:18.105Z,19.22
2022-08-28T07:43:38.570Z,19.28
2022-08-28T07:48:41.432Z,19.45
2022-08-28T07:53:42.994Z,19.74
2022-08-28T07:58:45.356Z,19.91
2022-08-28T08:03:47.284Z,20.18
2022-08-28T08:08:50.376Z,20.26
2022-08-28T08:13:54.158Z,20.21
2022-08-28T08:18:55.791Z,20.31
2022-08-28T08:23:59.971Z,20.43
2022-08-28T08:29:02.073Z,20.58
2022-08-28T08:34:05.697Z,20.76
2022-08-28T08:39:09.740Z,20.70
2022-08-28T08:44:33.804Z,20.84
2022-08-28T08:49:40.364Z,20.95
2022-08-28T08:54:44.323Z,21.02
2022-08-28T08:59:46.080Z,21.21
2022-08-28T09:04:57.087Z,21.33
2022-08-28T09:09:58.717Z,21.66
2022-08-28T09:15:09.865Z,21.69
2022-08-28T09:20:14.924Z,21.77
2022-08-28T09:25:47.693Z,22.04
2022-08-28T09:31:03.100Z,22.12
2022-08-28T09:36:37.902Z,22.25
2022-08-28T09:42:01.088Z,22.24
2022-08-28T09:47:02.745Z,22.08
2022-08-28T09:52:25.014Z,22.21
2022-08-28T09:57:26.956Z,22.36
2022-08-28T10:02:44.689Z,22.50
2022-08-28T10:08:05.393Z,22.73
2022-08-28T10:13:45.213Z,22.63
2022-08-28T10:18:56.383Z,22.56
2022-08-28T10:24:26.662Z,22.97
2022-08-28T10:29:59.432Z,22.72
2022-08-28T10:35:29.340Z,22.38
2022-08-28T10:40:36.042Z,22.16
2022-08-28T10:45:45.961Z,22.21
2022-08-28T10:51:00.463Z,22.24
2022-08-28T10:56:08.403Z,22.09
2022-08-28T11:01:25.975Z,22.31
2022-08-28T11:06:42.839Z,22.50
2022-08-28T11:11:48.674Z,22.61
2022-08-28T11:16:51.408Z,22.73
2022-08-28T11:22:03.116Z,22.89
2022-08-28T11:27:05.158Z,23.26
2022-08-28T11:32:31.701Z,23.21
2022-08-28T11:37:44.786Z,23.08
2022-08-28T11:42:50.117Z,23.17
2022-08-28T11:47:56.278Z,23.37
2022-08-28T11:53:21.395Z,23.52
2022-08-28T11:58:45.197Z,23.86
2022-08-28T12:04:15.088Z,23.96
2022-08-28T12:09:38.738Z,23.85
2022-08-28T12:14:42.868Z,23.78
2022-08-28T12:20:11.004Z,24.05
2022-08-28T12:25:37.831Z,24.32
2022-08-28T12:30:53.294Z,24.33
2022-08-28T12:36:02.111Z,24.22
2022-08-28T12:41:03.987Z,24.31
2022-08-28T12:46:18.891Z,24.59
2022-08-28T12:51:24.013Z,24.86
2022-08-28T12:56:29.972Z,24.77
2022-08-28T13:01:33.840Z,24.86
2022-08-28T13:06:38.505Z,24.88
2022-08-28T13:11:46.188Z,24.86
2022-08-28T13:16:47.900Z,24.82
2022-08-28T13:22:00.289Z,24.82
2022-08-28T13:27:17.941Z,24.92
2022-08-28T13:32:19.694Z,24.95
2022-08-28T13:37:49.635Z,25.01
2022-08-28T13:42:57.698Z,25.33
2022-08-28T13:47:59.553Z,25.35
2022-08-28T13:53:03.246Z,25.39
2022-08-28T13:58:04.905Z,25.41
2022-08-28T14:03:24.953Z,25.49
2022-08-28T14:08:26.533Z,25.47
2022-08-28T14:13:28.849Z,25.49
2022-08-28T14:18:30.439Z,25.45
2022-08-28T14:23:33.522Z,25.32
2022-08-28T14:28:35.251Z,25.22
2022-08-28T14:33:37.143Z,25.30
2022-08-28T14:38:38.685Z,25.39
2022-08-28T14:43:41.113Z,25.50
2022-08-28T14:48:42.685Z,25.42
2022-08-28T14:53:45.046Z,25.46
2022-08-28T15:04:48.025Z,25.30
2022-08-28T15:09:50.172Z,25.20
2022-08-28T15:14:55.295Z,25.17
2022-08-28T15:20:00.479Z,25.16
2022-08-28T15:25:03.219Z,25.13
